sensor_id;sensor_type;location;lat;lon;timestamp;P1;durP1;ratioP1;P2;durP2;ratioP2
15202;SDS011;7702;51.046;5.184;2022-10-13T00:02:10;15.57;;;10.03;;
15202;SDS011;7702;51.046;5.184;2022-10-13T00:04:36;20.80;;;11.03;;
15202;SDS011;7702;51.046;5.184;2022-10-13T00:07:01;13.97;;;10.07;;
15202;SDS011;7702;51.046;5.184;2022-10-13T00:09:27;11.83;;;10.07;;
15202;SDS011;7702;51.046;5.184;2022-10-13T00:11:55;15.83;;;10.50;;
15202;SDS011;7702;51.046;5.184;2022-10-13T00:14:21;16.03;;;10.50;;
15202;SDS011;7702;51.046;5.184;2022-10-13T00:16:47;13.43;;;9.30;;
15202;SDS011;7702;51.046;5.184;2022-10-13T00:19:13;17.37;;;10.23;;
15202;SDS011;7702;51.046;5.184;2022-10-13T00:21:39;14.90;;;9.47;;
15202;SDS011;7702;51.046;5.184;2022-10-13T00:24:04;12.83;;;9.03;;
15202;SDS011;7702;51.046;5.184;2022-10-13T00:26:33;16.83;;;9.83;;
15202;SDS011;7702;51.046;5.184;2022-10-13T00:28:59;18.47;;;9.97;;
15202;SDS011;7702;51.046;5.184;2022-10-13T00:31:28;15.93;;;10.40;;
15202;SDS011;7702;51.046;5.184;2022-10-13T00:33:56;15.70;;;9.23;;
15202;SDS011;7702;51.046;5.184;2022-10-13T00:36:22;12.93;;;9.80;;
15202;SDS011;7702;51.046;5.184;2022-10-13T00:38:48;12.67;;;8.90;;
15202;SDS011;7702;51.046;5.184;2022-10-13T00:41:15;12.17;;;8.53;;
15202;SDS011;7702;51.046;5.184;2022-10-13T00:43:49;14.30;;;9.30;;
15202;SDS011;7702;51.046;5.184;2022-10-13T00:46:17;13.83;;;9.23;;
15202;SDS011;7702;51.046;5.184;2022-10-13T00:48:44;14.23;;;9.07;;
15202;SDS011;7702;51.046;5.184;2022-10-13T00:51:12;14.73;;;8.97;;
15202;SDS011;7702;51.046;5.184;2022-10-13T00:53:41;14.90;;;9.40;;
15202;SDS011;7702;51.046;5.184;2022-10-13T00:56:10;12.13;;;8.10;;
15202;SDS011;7702;51.046;5.184;2022-10-13T00:58:37;14.50;;;9.07;;
15202;SDS011;7702;51.046;5.184;2022-10-13T01:01:04;11.27;;;8.43;;
15202;SDS011;7702;51.046;5.184;2022-10-13T01:03:31;11.33;;;8.67;;
15202;SDS011;7702;51.046;5.184;2022-10-13T01:05:58;15.00;;;8.93;;
15202;SDS011;7702;51.046;5.184;2022-10-13T01:08:27;11.30;;;8.83;;
15202;SDS011;7702;51.046;5.184;2022-10-13T01:30:12;11.73;;;8.43;;
15202;SDS011;7702;51.046;5.184;2022-10-13T01:35:18;13.17;;;9.20;;
15202;SDS011;7702;51.046;5.184;2022-10-13T01:37:51;12.37;;;8.73;;
15202;SDS011;7702;51.046;5.184;2022-10-13T01:40:41;12.37;;;9.10;;
15202;SDS011;7702;51.046;5.184;2022-10-13T01:43:15;9.23;;;8.30;;
15202;SDS011;7702;51.046;5.184;2022-10-13T01:46:04;13.70;;;8.40;;
15202;SDS011;7702;51.046;5.184;2022-10-13T01:48:31;14.33;;;8.80;;
15202;SDS011;7702;51.046;5.184;2022-10-13T01:51:00;15.70;;;9.67;;
15202;SDS011;7702;51.046;5.184;2022-10-13T01:53:26;14.00;;;9.50;;
15202;SDS011;7702;51.046;5.184;2022-10-13T01:55:56;10.97;;;9.07;;
15202;SDS011;7702;51.046;5.184;2022-10-13T01:58:24;11.30;;;9.07;;
15202;SDS011;7702;51.046;5.184;2022-10-13T02:06:15;13.13;;;9.27;;
15202;SDS011;7702;51.046;5.184;2022-10-13T02:11:20;12.70;;;9.80;;
15202;SDS011;7702;51.046;5.184;2022-10-13T02:16:18;13.60;;;9.30;;
15202;SDS011;7702;51.046;5.184;2022-10-13T02:18:48;13.43;;;9.27;;
15202;SDS011;7702;51.046;5.184;2022-10-13T02:21:15;12.47;;;9.13;;
15202;SDS011;7702;51.046;5.184;2022-10-13T02:23:42;13.07;;;8.87;;
15202;SDS011;7702;51.046;5.184;2022-10-13T02:26:09;15.27;;;9.17;;
15202;SDS011;7702;51.046;5.184;2022-10-13T02:28:35;14.33;;;9.20;;
15202;SDS011;7702;51.046;5.184;2022-10-13T02:31:02;13.97;;;9.17;;
15202;SDS011;7702;51.046;5.184;2022-10-13T02:33:31;11.40;;;9.30;;
15202;SDS011;7702;51.046;5.184;2022-10-13T02:35:57;14.83;;;10.27;;
15202;SDS011;7702;51.046;5.184;2022-10-13T02:38:22;15.77;;;9.30;;
15202;SDS011;7702;51.046;5.184;2022-10-13T02:40:48;13.20;;;9.60;;
15202;SDS011;7702;51.046;5.184;2022-10-13T02:43:14;12.47;;;9.37;;
15202;SDS011;7702;51.046;5.184;2022-10-13T02:45:40;11.93;;;9.13;;
15202;SDS011;7702;51.046;5.184;2022-10-13T02:48:05;15.30;;;9.57;;
15202;SDS011;7702;51.046;5.184;2022-10-13T02:50:31;15.23;;;9.20;;
15202;SDS011;7702;51.046;5.184;2022-10-13T02:52:57;14.60;;;9.00;;
15202;SDS011;7702;51.046;5.184;2022-10-13T02:55:23;14.33;;;10.43;;
15202;SDS011;7702;51.046;5.184;2022-10-13T02:57:48;16.70;;;9.27;;
15202;SDS011;7702;51.046;5.184;2022-10-13T03:00:15;13.63;;;9.37;;
15202;SDS011;7702;51.046;5.184;2022-10-13T03:02:41;15.77;;;10.30;;
15202;SDS011;7702;51.046;5.184;2022-10-13T03:05:07;14.37;;;9.57;;
15202;SDS011;7702;51.046;5.184;2022-10-13T03:07:33;12.93;;;9.53;;
15202;SDS011;7702;51.046;5.184;2022-10-13T03:09:58;15.63;;;10.00;;
15202;SDS011;7702;51.046;5.184;2022-10-13T03:12:24;14.13;;;10.00;;
15202;SDS011;7702;51.046;5.184;2022-10-13T03:14:53;12.33;;;10.13;;
15202;SDS011;7702;51.046;5.184;2022-10-13T03:17:18;17.43;;;10.67;;
15202;SDS011;7702;51.046;5.184;2022-10-13T03:19:44;13.70;;;10.43;;
15202;SDS011;7702;51.046;5.184;2022-10-13T03:22:10;12.93;;;9.60;;
15202;SDS011;7702;51.046;5.184;2022-10-13T03:24:38;16.20;;;10.87;;
15202;SDS011;7702;51.046;5.184;2022-10-13T03:27:04;13.50;;;10.40;;
15202;SDS011;7702;51.046;5.184;2022-10-13T03:29:30;14.43;;;10.20;;
15202;SDS011;7702;51.046;5.184;2022-10-13T03:31:56;16.60;;;10.20;;
15202;SDS011;7702;51.046;5.184;2022-10-13T03:34:22;14.50;;;10.73;;
15202;SDS011;7702;51.046;5.184;2022-10-13T03:36:47;14.00;;;10.03;;
15202;SDS011;7702;51.046;5.184;2022-10-13T03:39:14;15.90;;;10.43;;
15202;SDS011;7702;51.046;5.184;2022-10-13T03:41:39;14.20;;;10.53;;
15202;SDS011;7702;51.046;5.184;2022-10-13T03:44:05;15.27;;;10.80;;
15202;SDS011;7702;51.046;5.184;2022-10-13T03:46:31;13.70;;;10.07;;
15202;SDS011;7702;51.046;5.184;2022-10-13T03:48:57;16.07;;;11.00;;
15202;SDS011;7702;51.046;5.184;2022-10-13T03:51:23;15.27;;;10.93;;
15202;SDS011;7702;51.046;5.184;2022-10-13T03:53:49;16.70;;;11.23;;
15202;SDS011;7702;51.046;5.184;2022-10-13T03:56:17;14.20;;;11.27;;
15202;SDS011;7702;51.046;5.184;2022-10-13T03:58:45;17.47;;;10.97;;
15202;SDS011;7702;51.046;5.184;2022-10-13T04:01:11;15.63;;;10.23;;
15202;SDS011;7702;51.046;5.184;2022-10-13T04:03:38;14.67;;;11.13;;
15202;SDS011;7702;51.046;5.184;2022-10-13T04:06:04;17.50;;;11.30;;
15202;SDS011;7702;51.046;5.184;2022-10-13T04:08:30;20.73;;;11.73;;
15202;SDS011;7702;51.046;5.184;2022-10-13T04:10:59;16.03;;;11.77;;
15202;SDS011;7702;51.046;5.184;2022-10-13T04:13:25;15.23;;;11.50;;
15202;SDS011;7702;51.046;5.184;2022-10-13T04:15:51;14.43;;;11.13;;
15202;SDS011;7702;51.046;5.184;2022-10-13T04:18:17;18.97;;;12.43;;
15202;SDS011;7702;51.046;5.184;2022-10-13T04:20:43;16.20;;;10.87;;
15202;SDS011;7702;51.046;5.184;2022-10-13T04:23:09;16.63;;;11.73;;
15202;SDS011;7702;51.046;5.184;2022-10-13T04:25:35;18.23;;;12.47;;
15202;SDS011;7702;51.046;5.184;2022-10-13T04:28:03;16.87;;;12.23;;
15202;SDS011;7702;51.046;5.184;2022-10-13T04:30:31;19.17;;;11.47;;
15202;SDS011;7702;51.046;5.184;2022-10-13T04:32:59;18.17;;;11.97;;
15202;SDS011;7702;51.046;5.184;2022-10-13T04:35:25;17.67;;;11.37;;
15202;SDS011;7702;51.046;5.184;2022-10-13T04:37:51;16.37;;;11.13;;
15202;SDS011;7702;51.046;5.184;2022-10-13T04:40:17;15.53;;;11.77;;
15202;SDS011;7702;51.046;5.184;2022-10-13T04:42:43;17.07;;;11.90;;
15202;SDS011;7702;51.046;5.184;2022-10-13T04:45:08;18.07;;;12.60;;
15202;SDS011;7702;51.046;5.184;2022-10-13T04:47:34;17.57;;;12.40;;
15202;SDS011;7702;51.046;5.184;2022-10-13T04:50:01;14.23;;;11.93;;
15202;SDS011;7702;51.046;5.184;2022-10-13T04:52:27;14.63;;;11.60;;
15202;SDS011;7702;51.046;5.184;2022-10-13T04:54:53;16.30;;;10.63;;
15202;SDS011;7702;51.046;5.184;2022-10-13T04:57:19;17.53;;;11.27;;
15202;SDS011;7702;51.046;5.184;2022-10-13T04:59:45;16.93;;;11.23;;
15202;SDS011;7702;51.046;5.184;2022-10-13T05:02:11;19.43;;;12.80;;
15202;SDS011;7702;51.046;5.184;2022-10-13T05:04:36;17.00;;;11.17;;
15202;SDS011;7702;51.046;5.184;2022-10-13T05:07:02;16.23;;;11.37;;
15202;SDS011;7702;51.046;5.184;2022-10-13T05:09:28;19.40;;;12.00;;
15202;SDS011;7702;51.046;5.184;2022-10-13T05:11:54;17.67;;;10.83;;
15202;SDS011;7702;51.046;5.184;2022-10-13T05:14:20;14.60;;;11.67;;
15202;SDS011;7702;51.046;5.184;2022-10-13T05:16:46;18.80;;;12.90;;
15202;SDS011;7702;51.046;5.184;2022-10-13T05:19:12;17.03;;;11.73;;
15202;SDS011;7702;51.046;5.184;2022-10-13T05:21:37;16.43;;;11.23;;
15202;SDS011;7702;51.046;5.184;2022-10-13T05:24:03;15.87;;;11.17;;
15202;SDS011;7702;51.046;5.184;2022-10-13T05:26:30;15.37;;;11.60;;
15202;SDS011;7702;51.046;5.184;2022-10-13T05:29:00;15.77;;;10.97;;
15202;SDS011;7702;51.046;5.184;2022-10-13T05:31:27;15.30;;;10.90;;
15202;SDS011;7702;51.046;5.184;2022-10-13T05:33:56;13.60;;;11.30;;
15202;SDS011;7702;51.046;5.184;2022-10-13T05:36:31;19.67;;;12.03;;
15202;SDS011;7702;51.046;5.184;2022-10-13T05:39:00;13.70;;;11.60;;
15202;SDS011;7702;51.046;5.184;2022-10-13T05:41:27;15.37;;;11.17;;
15202;SDS011;7702;51.046;5.184;2022-10-13T05:43:55;19.03;;;12.23;;
15202;SDS011;7702;51.046;5.184;2022-10-13T05:46:23;19.27;;;12.63;;
15202;SDS011;7702;51.046;5.184;2022-10-13T05:48:50;16.40;;;12.10;;
15202;SDS011;7702;51.046;5.184;2022-10-13T05:51:21;18.10;;;12.03;;
15202;SDS011;7702;51.046;5.184;2022-10-13T05:53:51;17.30;;;11.93;;
15202;SDS011;7702;51.046;5.184;2022-10-13T05:56:23;15.77;;;11.73;;
15202;SDS011;7702;51.046;5.184;2022-10-13T05:58:54;16.60;;;11.67;;
15202;SDS011;7702;51.046;5.184;2022-10-13T06:01:26;15.60;;;11.63;;
15202;SDS011;7702;51.046;5.184;2022-10-13T06:03:57;19.67;;;12.20;;
15202;SDS011;7702;51.046;5.184;2022-10-13T06:06:25;16.37;;;11.57;;
15202;SDS011;7702;51.046;5.184;2022-10-13T06:08:50;17.80;;;12.73;;
15202;SDS011;7702;51.046;5.184;2022-10-13T06:11:17;18.20;;;11.67;;
15202;SDS011;7702;51.046;5.184;2022-10-13T06:13:43;20.23;;;12.17;;
15202;SDS011;7702;51.046;5.184;2022-10-13T06:16:09;14.73;;;11.90;;
15202;SDS011;7702;51.046;5.184;2022-10-13T06:18:35;16.87;;;11.43;;
15202;SDS011;7702;51.046;5.184;2022-10-13T06:21:01;18.87;;;11.97;;
15202;SDS011;7702;51.046;5.184;2022-10-13T06:23:27;19.43;;;11.80;;
15202;SDS011;7702;51.046;5.184;2022-10-13T06:25:52;15.53;;;11.63;;
15202;SDS011;7702;51.046;5.184;2022-10-13T06:28:18;17.77;;;12.10;;
15202;SDS011;7702;51.046;5.184;2022-10-13T06:30:45;15.60;;;11.20;;
15202;SDS011;7702;51.046;5.184;2022-10-13T06:33:17;17.10;;;12.87;;
15202;SDS011;7702;51.046;5.184;2022-10-13T06:35:43;21.63;;;12.57;;
15202;SDS011;7702;51.046;5.184;2022-10-13T06:38:08;13.73;;;11.17;;
15202;SDS011;7702;51.046;5.184;2022-10-13T06:40:34;15.10;;;11.67;;
15202;SDS011;7702;51.046;5.184;2022-10-13T06:43:00;18.10;;;11.63;;
15202;SDS011;7702;51.046;5.184;2022-10-13T06:45:26;18.80;;;12.40;;
15202;SDS011;7702;51.046;5.184;2022-10-13T06:47:52;18.07;;;12.60;;
15202;SDS011;7702;51.046;5.184;2022-10-13T06:50:19;15.50;;;12.00;;
15202;SDS011;7702;51.046;5.184;2022-10-13T06:52:46;16.77;;;12.27;;
15202;SDS011;7702;51.046;5.184;2022-10-13T06:55:12;21.93;;;12.00;;
15202;SDS011;7702;51.046;5.184;2022-10-13T06:57:37;13.90;;;10.67;;
15202;SDS011;7702;51.046;5.184;2022-10-13T07:00:03;12.60;;;10.53;;
15202;SDS011;7702;51.046;5.184;2022-10-13T07:02:30;16.77;;;11.23;;
15202;SDS011;7702;51.046;5.184;2022-10-13T07:04:55;17.60;;;11.03;;
15202;SDS011;7702;51.046;5.184;2022-10-13T07:07:21;14.83;;;10.83;;
15202;SDS011;7702;51.046;5.184;2022-10-13T07:09:47;15.70;;;11.33;;
15202;SDS011;7702;51.046;5.184;2022-10-13T07:12:13;16.27;;;10.87;;
15202;SDS011;7702;51.046;5.184;2022-10-13T07:14:39;14.10;;;10.97;;
15202;SDS011;7702;51.046;5.184;2022-10-13T07:17:05;15.37;;;11.07;;
15202;SDS011;7702;51.046;5.184;2022-10-13T07:19:31;12.53;;;11.23;;
15202;SDS011;7702;51.046;5.184;2022-10-13T07:21:56;17.33;;;10.77;;
15202;SDS011;7702;51.046;5.184;2022-10-13T07:24:22;12.67;;;10.47;;
15202;SDS011;7702;51.046;5.184;2022-10-13T07:26:48;15.40;;;11.43;;
15202;SDS011;7702;51.046;5.184;2022-10-13T07:29:14;14.93;;;10.20;;
15202;SDS011;7702;51.046;5.184;2022-10-13T07:31:41;13.93;;;11.07;;
15202;SDS011;7702;51.046;5.184;2022-10-13T07:34:08;12.17;;;10.40;;
15202;SDS011;7702;51.046;5.184;2022-10-13T07:36:33;13.47;;;10.20;;
15202;SDS011;7702;51.046;5.184;2022-10-13T07:39:00;11.83;;;9.80;;
15202;SDS011;7702;51.046;5.184;2022-10-13T07:41:27;14.63;;;9.73;;
15202;SDS011;7702;51.046;5.184;2022-10-13T07:43:54;17.97;;;9.93;;
15202;SDS011;7702;51.046;5.184;2022-10-13T07:46:20;14.60;;;10.23;;
15202;SDS011;7702;51.046;5.184;2022-10-13T07:48:46;15.30;;;10.03;;
15202;SDS011;7702;51.046;5.184;2022-10-13T07:51:12;12.17;;;9.70;;
15202;SDS011;7702;51.046;5.184;2022-10-13T07:53:39;16.70;;;9.97;;
15202;SDS011;7702;51.046;5.184;2022-10-13T07:56:06;12.70;;;10.17;;
15202;SDS011;7702;51.046;5.184;2022-10-13T07:58:38;13.40;;;9.07;;
15202;SDS011;7702;51.046;5.184;2022-10-13T08:01:08;14.50;;;9.87;;
15202;SDS011;7702;51.046;5.184;2022-10-13T08:03:35;18.20;;;10.00;;
15202;SDS011;7702;51.046;5.184;2022-10-13T08:06:02;12.77;;;9.60;;
15202;SDS011;7702;51.046;5.184;2022-10-13T08:08:28;12.90;;;10.43;;
15202;SDS011;7702;51.046;5.184;2022-10-13T08:10:59;14.87;;;10.50;;
15202;SDS011;7702;51.046;5.184;2022-10-13T08:13:26;14.67;;;9.33;;
15202;SDS011;7702;51.046;5.184;2022-10-13T08:15:52;13.83;;;9.80;;
15202;SDS011;7702;51.046;5.184;2022-10-13T08:18:18;14.80;;;10.03;;
15202;SDS011;7702;51.046;5.184;2022-10-13T08:20:44;14.43;;;10.07;;
15202;SDS011;7702;51.046;5.184;2022-10-13T08:23:10;18.57;;;9.47;;
15202;SDS011;7702;51.046;5.184;2022-10-13T08:25:40;13.20;;;9.87;;
15202;SDS011;7702;51.046;5.184;2022-10-13T08:28:16;12.47;;;8.97;;
15202;SDS011;7702;51.046;5.184;2022-10-13T08:30:41;13.20;;;9.47;;
15202;SDS011;7702;51.046;5.184;2022-10-13T08:33:07;10.17;;;8.90;;
15202;SDS011;7702;51.046;5.184;2022-10-13T08:35:33;12.37;;;8.63;;
15202;SDS011;7702;51.046;5.184;2022-10-13T08:37:58;15.47;;;10.37;;
15202;SDS011;7702;51.046;5.184;2022-10-13T08:40:24;14.33;;;9.83;;
15202;SDS011;7702;51.046;5.184;2022-10-13T08:42:50;13.57;;;10.20;;
15202;SDS011;7702;51.046;5.184;2022-10-13T08:45:20;10.93;;;9.40;;
15202;SDS011;7702;51.046;5.184;2022-10-13T08:47:52;14.80;;;9.33;;
15202;SDS011;7702;51.046;5.184;2022-10-13T08:50:24;12.60;;;9.33;;
15202;SDS011;7702;51.046;5.184;2022-10-13T08:52:57;12.00;;;9.10;;
15202;SDS011;7702;51.046;5.184;2022-10-13T08:58:00;13.13;;;9.80;;
15202;SDS011;7702;51.046;5.184;2022-10-13T09:00:30;12.93;;;9.40;;
15202;SDS011;7702;51.046;5.184;2022-10-13T09:03:03;14.17;;;9.37;;
15202;SDS011;7702;51.046;5.184;2022-10-13T09:05:52;12.17;;;9.57;;
15202;SDS011;7702;51.046;5.184;2022-10-13T09:08:59;11.97;;;9.10;;
15202;SDS011;7702;51.046;5.184;2022-10-13T09:11:30;12.20;;;9.43;;
15202;SDS011;7702;51.046;5.184;2022-10-13T09:13:59;9.60;;;8.33;;
15202;SDS011;7702;51.046;5.184;2022-10-13T09:19:14;10.57;;;8.13;;
15202;SDS011;7702;51.046;5.184;2022-10-13T09:21:46;11.20;;;9.10;;
15202;SDS011;7702;51.046;5.184;2022-10-13T09:24:14;14.40;;;8.30;;
15202;SDS011;7702;51.046;5.184;2022-10-13T09:26:44;9.67;;;8.27;;
15202;SDS011;7702;51.046;5.184;2022-10-13T09:29:19;12.03;;;8.67;;
15202;SDS011;7702;51.046;5.184;2022-10-13T09:31:49;11.00;;;7.97;;
15202;SDS011;7702;51.046;5.184;2022-10-13T09:39:29;10.43;;;7.87;;
15202;SDS011;7702;51.046;5.184;2022-10-13T09:44:40;12.43;;;7.93;;
15202;SDS011;7702;51.046;5.184;2022-10-13T09:47:13;13.03;;;8.70;;
15202;SDS011;7702;51.046;5.184;2022-10-13T09:49:44;9.83;;;8.83;;
15202;SDS011;7702;51.046;5.184;2022-10-13T10:06:01;11.40;;;7.60;;
15202;SDS011;7702;51.046;5.184;2022-10-13T10:08:37;12.87;;;8.27;;
15202;SDS011;7702;51.046;5.184;2022-10-13T10:11:12;10.80;;;8.47;;
15202;SDS011;7702;51.046;5.184;2022-10-13T10:13:41;13.33;;;9.50;;
15202;SDS011;7702;51.046;5.184;2022-10-13T10:16:11;9.23;;;7.93;;
15202;SDS011;7702;51.046;5.184;2022-10-13T10:18:55;8.80;;;7.00;;
15202;SDS011;7702;51.046;5.184;2022-10-13T10:24:00;11.57;;;7.87;;
15202;SDS011;7702;51.046;5.184;2022-10-13T10:29:23;13.50;;;8.47;;
15202;SDS011;7702;51.046;5.184;2022-10-13T10:34:27;9.47;;;7.97;;
15202;SDS011;7702;51.046;5.184;2022-10-13T10:45:02;9.33;;;7.27;;
15202;SDS011;7702;51.046;5.184;2022-10-13T10:47:35;8.87;;;7.60;;
15202;SDS011;7702;51.046;5.184;2022-10-13T10:50:05;9.23;;;7.47;;
15202;SDS011;7702;51.046;5.184;2022-10-13T10:55:22;11.87;;;9.13;;
15202;SDS011;7702;51.046;5.184;2022-10-13T10:57:55;10.70;;;7.90;;
15202;SDS011;7702;51.046;5.184;2022-10-13T11:00:29;10.37;;;7.93;;
15202;SDS011;7702;51.046;5.184;2022-10-13T11:05:57;15.10;;;8.40;;
15202;SDS011;7702;51.046;5.184;2022-10-13T11:16:34;12.23;;;9.10;;
15202;SDS011;7702;51.046;5.184;2022-10-13T11:29:55;12.30;;;8.13;;
15202;SDS011;7702;51.046;5.184;2022-10-13T11:34:58;12.63;;;9.20;;
15202;SDS011;7702;51.046;5.184;2022-10-13T11:37:46;9.63;;;8.30;;
15202;SDS011;7702;51.046;5.184;2022-10-13T11:43:15;17.27;;;10.27;;
15202;SDS011;7702;51.046;5.184;2022-10-13T11:51:20;12.67;;;10.17;;
15202;SDS011;7702;51.046;5.184;2022-10-13T11:56:57;11.17;;;9.80;;
15202;SDS011;7702;51.046;5.184;2022-10-13T12:04:36;12.73;;;10.63;;
15202;SDS011;7702;51.046;5.184;2022-10-13T12:07:04;14.33;;;9.63;;
15202;SDS011;7702;51.046;5.184;2022-10-13T12:09:46;13.87;;;10.37;;
15202;SDS011;7702;51.046;5.184;2022-10-13T12:12:16;14.93;;;10.20;;
15202;SDS011;7702;51.046;5.184;2022-10-13T12:14:45;13.63;;;10.93;;
15202;SDS011;7702;51.046;5.184;2022-10-13T12:19:53;14.53;;;10.30;;
15202;SDS011;7702;51.046;5.184;2022-10-13T12:22:20;14.03;;;10.80;;
15202;SDS011;7702;51.046;5.184;2022-10-13T12:25:02;13.03;;;10.47;;
15202;SDS011;7702;51.046;5.184;2022-10-13T12:27:32;14.27;;;;;
15202;SDS011;7702;51.046;5.184;2022-10-13T12:32:48;15.23;;;12.50;;
15202;SDS011;7702;51.046;5.184;2022-10-13T12:37:49;13.80;;;11.37;;
15202;SDS011;7702;51.046;5.184;2022-10-13T12:40:16;16.83;;;11.90;;
15202;SDS011;7702;51.046;5.184;2022-10-13T12:42:43;15.63;;;11.43;;
15202;SDS011;7702;51.046;5.184;2022-10-13T12:45:13;19.17;;;12.77;;
15202;SDS011;7702;51.046;5.184;2022-10-13T12:52:51;15.40;;;13.50;;
15202;SDS011;7702;51.046;5.184;2022-10-13T12:55:35;16.03;;;11.90;;
15202;SDS011;7702;51.046;5.184;2022-10-13T12:58:19;14.57;;;12.50;;
15202;SDS011;7702;51.046;5.184;2022-10-13T13:00:57;15.93;;;12.40;;
15202;SDS011;7702;51.046;5.184;2022-10-13T13:03:25;19.07;;;12.70;;
15202;SDS011;7702;51.046;5.184;2022-10-13T13:11:36;17.23;;;11.63;;
15202;SDS011;7702;51.046;5.184;2022-10-13T13:19:59;15.03;;;12.37;;
15202;SDS011;7702;51.046;5.184;2022-10-13T13:22:24;17.03;;;13.10;;
15202;SDS011;7702;51.046;5.184;2022-10-13T13:24:50;15.90;;;12.63;;
15202;SDS011;7702;51.046;5.184;2022-10-13T13:29:42;17.30;;;11.73;;
15202;SDS011;7702;51.046;5.184;2022-10-13T13:32:10;16.73;;;11.93;;
15202;SDS011;7702;51.046;5.184;2022-10-13T13:34:37;15.13;;;12.03;;
15202;SDS011;7702;51.046;5.184;2022-10-13T13:37:03;13.97;;;11.73;;
15202;SDS011;7702;51.046;5.184;2022-10-13T13:39:29;15.17;;;12.40;;
15202;SDS011;7702;51.046;5.184;2022-10-13T13:41:55;15.20;;;11.83;;
15202;SDS011;7702;51.046;5.184;2022-10-13T13:44:20;14.53;;;12.03;;
15202;SDS011;7702;51.046;5.184;2022-10-13T13:46:46;16.23;;;11.37;;
15202;SDS011;7702;51.046;5.184;2022-10-13T13:49:12;14.33;;;11.30;;
15202;SDS011;7702;51.046;5.184;2022-10-13T13:51:37;14.30;;;11.23;;
15202;SDS011;7702;51.046;5.184;2022-10-13T13:54:03;14.87;;;10.80;;
15202;SDS011;7702;51.046;5.184;2022-10-13T13:56:30;14.10;;;11.37;;
15202;SDS011;7702;51.046;5.184;2022-10-13T13:58:55;15.70;;;10.57;;
15202;SDS011;7702;51.046;5.184;2022-10-13T14:01:21;15.43;;;11.23;;
15202;SDS011;7702;51.046;5.184;2022-10-13T14:03:47;13.13;;;11.63;;
15202;SDS011;7702;51.046;5.184;2022-10-13T14:06:17;14.13;;;11.27;;
15202;SDS011;7702;51.046;5.184;2022-10-13T14:08:44;13.57;;;11.13;;
15202;SDS011;7702;51.046;5.184;2022-10-13T14:11:10;13.37;;;10.90;;
15202;SDS011;7702;51.046;5.184;2022-10-13T14:13:36;15.30;;;11.00;;
15202;SDS011;7702;51.046;5.184;2022-10-13T14:16:02;12.57;;;11.03;;
15202;SDS011;7702;51.046;5.184;2022-10-13T14:18:29;15.80;;;11.60;;
15202;SDS011;7702;51.046;5.184;2022-10-13T14:20:54;13.67;;;10.97;;
15202;SDS011;7702;51.046;5.184;2022-10-13T14:23:20;14.33;;;12.83;;
15202;SDS011;7702;51.046;5.184;2022-10-13T14:25:46;12.50;;;11.23;;
15202;SDS011;7702;51.046;5.184;2022-10-13T14:28:11;15.37;;;12.23;;
15202;SDS011;7702;51.046;5.184;2022-10-13T14:30:38;13.90;;;11.93;;
15202;SDS011;7702;51.046;5.184;2022-10-13T14:33:04;17.27;;;12.30;;
15202;SDS011;7702;51.046;5.184;2022-10-13T14:35:30;17.13;;;12.67;;
15202;SDS011;7702;51.046;5.184;2022-10-13T14:37:55;16.87;;;13.30;;
15202;SDS011;7702;51.046;5.184;2022-10-13T14:40:21;17.00;;;12.37;;
15202;SDS011;7702;51.046;5.184;2022-10-13T14:42:46;20.10;;;12.80;;
15202;SDS011;7702;51.046;5.184;2022-10-13T14:45:12;15.30;;;11.40;;
15202;SDS011;7702;51.046;5.184;2022-10-13T14:47:39;18.10;;;15.63;;
15202;SDS011;7702;51.046;5.184;2022-10-13T14:50:05;17.67;;;12.43;;
15202;SDS011;7702;51.046;5.184;2022-10-13T14:52:32;16.80;;;14.10;;
15202;SDS011;7702;51.046;5.184;2022-10-13T14:54:58;29.47;;;22.50;;
15202;SDS011;7702;51.046;5.184;2022-10-13T14:57:23;19.50;;;16.43;;
15202;SDS011;7702;51.046;5.184;2022-10-13T14:59:50;21.80;;;17.90;;
15202;SDS011;7702;51.046;5.184;2022-10-13T15:02:15;19.13;;;14.97;;
15202;SDS011;7702;51.046;5.184;2022-10-13T15:04:41;19.03;;;16.43;;
15202;SDS011;7702;51.046;5.184;2022-10-13T15:07:07;18.63;;;13.13;;
15202;SDS011;7702;51.046;5.184;2022-10-13T15:09:33;15.83;;;13.40;;
15202;SDS011;7702;51.046;5.184;2022-10-13T15:11:58;17.17;;;14.33;;
15202;SDS011;7702;51.046;5.184;2022-10-13T15:14:24;18.53;;;13.97;;
15202;SDS011;7702;51.046;5.184;2022-10-13T15:16:50;17.90;;;14.47;;
15202;SDS011;7702;51.046;5.184;2022-10-13T15:19:16;16.67;;;14.40;;
15202;SDS011;7702;51.046;5.184;2022-10-13T15:21:42;18.27;;;13.90;;
15202;SDS011;7702;51.046;5.184;2022-10-13T15:24:08;18.93;;;14.43;;
15202;SDS011;7702;51.046;5.184;2022-10-13T15:26:34;18.37;;;15.47;;
15202;SDS011;7702;51.046;5.184;2022-10-13T15:29:00;19.53;;;13.10;;
15202;SDS011;7702;51.046;5.184;2022-10-13T15:31:27;17.50;;;13.37;;
15202;SDS011;7702;51.046;5.184;2022-10-13T15:33:55;15.20;;;12.23;;
15202;SDS011;7702;51.046;5.184;2022-10-13T15:36:22;14.70;;;13.20;;
15202;SDS011;7702;51.046;5.184;2022-10-13T15:38:49;15.87;;;12.43;;
15202;SDS011;7702;51.046;5.184;2022-10-13T15:41:15;13.97;;;11.43;;
15202;SDS011;7702;51.046;5.184;2022-10-13T15:43:42;17.60;;;13.10;;
15202;SDS011;7702;51.046;5.184;2022-10-13T15:46:12;18.33;;;14.30;;
15202;SDS011;7702;51.046;5.184;2022-10-13T15:48:45;14.93;;;12.10;;
15202;SDS011;7702;51.046;5.184;2022-10-13T15:51:16;13.83;;;12.40;;
15202;SDS011;7702;51.046;5.184;2022-10-13T15:53:43;15.97;;;14.20;;
15202;SDS011;7702;51.046;5.184;2022-10-13T15:56:10;21.17;;;19.07;;
15202;SDS011;7702;51.046;5.184;2022-10-13T15:58:35;15.97;;;13.47;;
15202;SDS011;7702;51.046;5.184;2022-10-13T16:01:08;18.13;;;13.43;;
15202;SDS011;7702;51.046;5.184;2022-10-13T16:03:35;17.03;;;14.13;;
15202;SDS011;7702;51.046;5.184;2022-10-13T16:06:04;17.73;;;13.63;;
15202;SDS011;7702;51.046;5.184;2022-10-13T16:08:34;14.93;;;13.07;;
15202;SDS011;7702;51.046;5.184;2022-10-13T16:11:07;16.70;;;13.50;;
15202;SDS011;7702;51.046;5.184;2022-10-13T16:13:38;18.63;;;14.70;;
15202;SDS011;7702;51.046;5.184;2022-10-13T16:16:04;17.23;;;15.43;;
15202;SDS011;7702;51.046;5.184;2022-10-13T16:18:31;17.10;;;15.30;;
15202;SDS011;7702;51.046;5.184;2022-10-13T16:20:59;18.10;;;13.33;;
15202;SDS011;7702;51.046;5.184;2022-10-13T16:23:25;14.83;;;13.13;;
15202;SDS011;7702;51.046;5.184;2022-10-13T16:25:51;14.87;;;13.37;;
15202;SDS011;7702;51.046;5.184;2022-10-13T16:28:17;15.07;;;13.57;;
15202;SDS011;7702;51.046;5.184;2022-10-13T16:30:43;15.73;;;12.53;;
15202;SDS011;7702;51.046;5.184;2022-10-13T16:33:08;13.03;;;11.60;;
15202;SDS011;7702;51.046;5.184;2022-10-13T16:35:34;17.47;;;12.60;;
15202;SDS011;7702;51.046;5.184;2022-10-13T16:38:00;16.97;;;13.13;;
15202;SDS011;7702;51.046;5.184;2022-10-13T16:40:26;16.20;;;12.60;;
15202;SDS011;7702;51.046;5.184;2022-10-13T16:42:51;19.13;;;17.40;;
15202;SDS011;7702;51.046;5.184;2022-10-13T16:45:17;21.53;;;19.53;;
15202;SDS011;7702;51.046;5.184;2022-10-13T16:47:43;14.37;;;12.67;;
15202;SDS011;7702;51.046;5.184;2022-10-13T16:50:14;13.37;;;12.07;;
15202;SDS011;7702;51.046;5.184;2022-10-13T16:52:41;12.57;;;9.63;;
15202;SDS011;7702;51.046;5.184;2022-10-13T16:55:07;12.73;;;10.23;;
15202;SDS011;7702;51.046;5.184;2022-10-13T16:57:33;10.33;;;8.23;;
15202;SDS011;7702;51.046;5.184;2022-10-13T16:59:59;9.90;;;7.83;;
15202;SDS011;7702;51.046;5.184;2022-10-13T17:02:24;7.73;;;6.83;;
15202;SDS011;7702;51.046;5.184;2022-10-13T17:04:50;7.13;;;6.37;;
15202;SDS011;7702;51.046;5.184;2022-10-13T17:07:16;9.47;;;6.43;;
15202;SDS011;7702;51.046;5.184;2022-10-13T17:09:41;8.97;;;6.50;;
15202;SDS011;7702;51.046;5.184;2022-10-13T17:12:07;10.33;;;8.93;;